createdAt,value
2022-11-06T00:00:21.205Z,100606.84
2022-11-06T00:03:10.369Z,100603.38
2022-11-06T00:06:17.557Z,100567.34
2022-11-06T00:09:10.374Z,100602.31
2022-11-06T00:11:58.828Z,100579.25
2022-11-06T00:14:47.278Z,100597.59
2022-11-06T00:17:35.717Z,100571.09
2022-11-06T00:20:24.153Z,100600.97
2022-11-06T00:23:13.952Z,100608.59
2022-11-06T00:26:02.485Z,100612.09
2022-11-06T00:28:50.988Z,100610.91
2022-11-06T00:31:39.438Z,100611.91
2022-11-06T00:34:27.827Z,100617.69
2022-11-06T00:37:16.285Z,100562.66
2022-11-06T00:40:07.323Z,100619.13
2022-11-06T00:42:57.047Z,100616.44
2022-11-06T00:45:45.454Z,100600.09
2022-11-06T00:48:34.240Z,100623.53
2022-11-06T00:51:25.313Z,100614.84
2022-11-06T00:54:14.433Z,100618.84
2022-11-06T00:57:04.326Z,100614.16
2022-11-06T00:59:52.752Z,100599.91
2022-11-06T01:02:41.273Z,100595.00
2022-11-06T01:05:29.894Z,100594.28
2022-11-06T01:08:18.347Z,100600.56
2022-11-06T01:11:08.846Z,100596.25
2022-11-06T01:14:00.364Z,100607.16
2022-11-06T01:16:48.757Z,100607.88
2022-11-06T01:19:37.232Z,100594.34
2022-11-06T01:22:25.685Z,100611.72
2022-11-06T01:25:14.095Z,100609.06
2022-11-06T01:28:02.533Z,100602.41
2022-11-06T01:30:52.328Z,100599.06
2022-11-06T01:33:41.189Z,100602.69
2022-11-06T01:36:30.165Z,100605.50
2022-11-06T01:39:18.762Z,100600.56
2022-11-06T01:42:07.188Z,100594.94
2022-11-06T01:45:22.262Z,100601.31
2022-11-06T01:48:12.931Z,100598.59
2022-11-06T01:51:02.080Z,100588.16
2022-11-06T01:53:50.625Z,100592.09
2022-11-06T01:56:39.969Z,100568.72
2022-11-06T01:59:30.732Z,100565.25
2022-11-06T02:02:19.462Z,100550.22
2022-11-06T02:05:10.240Z,100563.56
2022-11-06T02:08:00.772Z,100549.94
2022-11-06T02:10:49.699Z,100548.09
2022-11-06T02:13:44.514Z,100543.38
2022-11-06T02:16:40.669Z,100543.19
2022-11-06T02:19:40.983Z,100530.13
2022-11-06T02:23:01.627Z,100517.78
2022-11-06T02:25:53.589Z,100508.72
2022-11-06T02:28:47.872Z,100504.09
2022-11-06T02:31:37.077Z,100497.34
2022-11-06T02:34:26.535Z,100352.66
2022-11-06T02:37:16.553Z,100488.41
2022-11-06T02:40:08.193Z,100484.97
2022-11-06T02:42:58.774Z,100482.16
2022-11-06T02:45:50.460Z,100482.47
2022-11-06T02:48:43.759Z,100482.78
2022-11-06T02:51:34.373Z,100484.47
2022-11-06T02:54:23.754Z,100473.22
2022-11-06T02:57:15.696Z,100476.84
2022-11-06T03:00:07.588Z,100485.13
2022-11-06T03:03:01.588Z,100483.72
2022-11-06T03:05:53.411Z,100473.41
2022-11-06T03:08:43.524Z,100477.88
2022-11-06T03:11:35.697Z,100481.72
2022-11-06T03:14:28.470Z,100437.63
2022-11-06T03:17:19.731Z,100463.56
2022-11-06T03:20:19.250Z,100470.53
2022-11-06T03:23:14.422Z,100473.41
2022-11-06T03:26:12.280Z,100477.81
2022-11-06T03:29:06.824Z,100484.69
2022-11-06T03:31:58.321Z,100492.16
2022-11-06T03:34:51.481Z,100479.50
2022-11-06T03:37:45.140Z,100482.28
2022-11-06T03:40:37.880Z,100476.22
2022-11-06T03:43:29.343Z,100476.38
2022-11-06T03:46:20.779Z,100447.34
2022-11-06T03:49:11.113Z,100454.31
2022-11-06T03:52:02.327Z,100445.22
2022-11-06T03:54:54.896Z,100442.56
2022-11-06T03:57:46.181Z,100441.50
2022-11-06T04:00:36.407Z,100448.88
2022-11-06T04:03:27.773Z,100442.50
2022-11-06T04:06:20.047Z,100458.88
2022-11-06T04:09:28.073Z,100424.84
2022-11-06T04:12:39.084Z,100423.84
2022-11-06T04:15:28.180Z,100423.78
2022-11-06T04:18:19.739Z,100415.38
2022-11-06T04:21:25.776Z,100420.69
2022-11-06T04:24:42.304Z,100382.03
2022-11-06T04:27:43.026Z,100420.72
2022-11-06T04:30:34.114Z,100418.50
2022-11-06T04:33:27.111Z,100423.63
2022-11-06T04:36:21.141Z,100433.47
2022-11-06T04:39:14.811Z,100439.06
2022-11-06T04:42:07.135Z,100448.69
2022-11-06T04:45:02.801Z,100449.13
2022-11-06T04:47:52.229Z,100445.50
2022-11-06T04:50:44.176Z,100446.16
2022-11-06T04:53:33.410Z,100445.78
2022-11-06T04:56:25.757Z,100455.97
2022-11-06T04:59:16.319Z,100449.41
2022-11-06T05:02:06.863Z,100458.34
2022-11-06T05:04:55.421Z,100461.69
2022-11-06T05:07:43.813Z,100460.00
2022-11-06T05:10:32.243Z,100461.78
2022-11-06T05:13:20.655Z,100462.47
2022-11-06T05:16:09.335Z,100455.53
2022-11-06T05:18:59.184Z,100458.59
2022-11-06T05:22:05.014Z,100444.56
2022-11-06T05:24:53.425Z,100440.19
2022-11-06T05:27:41.881Z,100430.00
2022-11-06T05:30:30.319Z,100388.75
2022-11-06T05:33:18.728Z,100452.13
2022-11-06T05:36:09.431Z,100451.19
2022-11-06T05:38:57.911Z,100439.75
2022-11-06T05:41:46.333Z,100434.44
2022-11-06T05:44:34.781Z,100452.00
2022-11-06T05:47:23.437Z,100461.66
2022-11-06T05:50:11.899Z,100441.69
2022-11-06T05:53:02.295Z,100432.50
2022-11-06T05:55:50.721Z,100429.44
2022-11-06T05:58:39.167Z,100428.91
2022-11-06T06:01:27.628Z,100415.22
2022-11-06T06:04:16.293Z,100401.59
2022-11-06T06:07:04.765Z,100398.09
2022-11-06T06:09:54.587Z,100392.38
2022-11-06T06:12:43.005Z,100399.31
2022-11-06T06:15:31.419Z,100405.91
2022-11-06T06:18:19.861Z,100378.53
2022-11-06T06:21:08.303Z,100396.59
2022-11-06T06:23:56.713Z,100396.09
2022-11-06T06:26:46.847Z,100382.56
2022-11-06T06:29:35.670Z,100377.00
2022-11-06T06:32:24.153Z,100384.28
2022-11-06T06:35:12.590Z,100372.44
2022-11-06T06:38:01.210Z,100368.25
2022-11-06T06:40:49.666Z,100365.38
2022-11-06T06:43:39.437Z,100355.16
2022-11-06T06:46:27.927Z,100340.91
2022-11-06T06:49:16.369Z,100339.97
2022-11-06T06:52:05.162Z,100329.09
2022-11-06T06:54:53.618Z,100326.69
2022-11-06T06:57:42.055Z,100320.00
2022-11-06T07:00:31.837Z,100320.59
2022-11-06T07:03:20.317Z,100312.00
2022-11-06T07:06:08.998Z,100302.38
2022-11-06T07:08:57.468Z,100287.75
2022-11-06T07:11:45.921Z,100286.72
2022-11-06T07:14:34.327Z,100281.22
2022-11-06T07:17:24.099Z,100269.44
2022-11-06T07:20:12.825Z,100261.31
2022-11-06T07:23:07.140Z,100261.03
2022-11-06T07:25:55.843Z,100231.63
2022-11-06T07:28:44.252Z,100256.69
2022-11-06T07:31:32.773Z,100242.69
2022-11-06T07:34:22.569Z,100247.44
2022-11-06T07:37:11.005Z,100235.69
2022-11-06T07:39:59.436Z,100256.91
2022-11-06T07:42:47.907Z,100233.16
2022-11-06T07:45:36.835Z,100246.38
2022-11-06T07:48:25.319Z,100142.63
2022-11-06T07:51:15.086Z,100257.41
2022-11-06T07:54:03.538Z,100261.63
2022-11-06T07:56:51.986Z,100263.59
2022-11-06T07:59:40.782Z,100280.47
2022-11-06T08:02:29.280Z,100286.56
2022-11-06T08:05:17.851Z,100280.16
2022-11-06T08:08:07.725Z,100286.44
2022-11-06T08:10:56.165Z,100299.44
2022-11-06T08:13:44.604Z,100307.28
2022-11-06T08:16:33.270Z,100308.44
2022-11-06T08:19:22.009Z,100304.91
2022-11-06T08:22:10.736Z,100304.28
2022-11-06T08:25:00.489Z,100296.97
2022-11-06T08:27:48.898Z,100300.84
2022-11-06T08:30:37.313Z,100315.50
2022-11-06T08:33:26.076Z,100292.25
2022-11-06T08:36:14.527Z,100358.75
2022-11-06T08:39:02.977Z,100341.72
2022-11-06T08:41:52.744Z,100352.88
2022-11-06T08:44:42.412Z,100354.22
2022-11-06T08:47:30.962Z,100315.31
2022-11-06T08:50:19.586Z,100318.06
2022-11-06T08:53:08.536Z,100295.50
2022-11-06T08:55:57.128Z,100299.53
2022-11-06T08:59:12.659Z,100299.75
2022-11-06T09:02:06.855Z,100301.75
2022-11-06T09:05:07.638Z,100280.47
2022-11-06T09:08:21.194Z,100261.97
2022-11-06T09:11:29.468Z,100262.22
2022-11-06T09:14:28.231Z,100254.94
2022-11-06T09:17:23.873Z,100249.72
2022-11-06T09:20:24.770Z,100195.88
2022-11-06T09:23:14.949Z,100231.06
2022-11-06T09:26:15.899Z,100224.81
2022-11-06T09:29:05.153Z,100215.00
2022-11-06T09:31:55.880Z,100212.00
2022-11-06T09:34:51.270Z,100190.47
2022-11-06T09:37:48.037Z,100183.22
2022-11-06T09:40:49.286Z,100135.69
2022-11-06T09:44:04.516Z,100177.81
2022-11-06T09:47:01.407Z,100162.28
2022-11-06T09:49:58.934Z,100162.69
2022-11-06T09:52:51.899Z,100168.16
2022-11-06T09:55:54.957Z,100169.91
2022-11-06T09:58:48.495Z,100164.00
2022-11-06T10:01:41.643Z,100168.19
2022-11-06T10:04:40.990Z,100157.91
2022-11-06T10:07:31.614Z,100156.91
2022-11-06T10:10:21.542Z,100123.03
2022-11-06T10:13:28.602Z,100147.84
2022-11-06T10:16:24.322Z,100111.53
2022-11-06T10:19:29.616Z,100129.72
2022-11-06T10:22:24.764Z,100116.94
2022-11-06T10:25:20.888Z,100106.63
2022-11-06T10:28:20.071Z,100097.31
2022-11-06T10:31:12.261Z,100088.03
2022-11-06T10:34:03.574Z,100078.13
2022-11-06T10:36:53.442Z,100035.22
2022-11-06T10:39:43.749Z,100069.25
2022-11-06T10:42:38.494Z,100030.63
2022-11-06T10:45:28.674Z,99912.69
2022-11-06T10:48:30.106Z,100046.00
2022-11-06T10:51:29.404Z,100045.56
2022-11-06T10:54:29.610Z,100037.81
2022-11-06T10:57:28.168Z,100026.56
2022-11-06T11:00:17.340Z,100017.16
2022-11-06T11:03:07.837Z,100005.25
2022-11-06T11:05:56.538Z,100007.31
2022-11-06T11:08:46.978Z,100009.78
2022-11-06T11:11:35.467Z,100006.19
2022-11-06T11:14:26.530Z,99998.88
2022-11-06T11:17:21.113Z,100005.41
2022-11-06T11:20:31.399Z,100000.69
2022-11-06T11:23:22.025Z,100001.25
2022-11-06T11:26:21.483Z,99983.00
2022-11-06T11:29:16.019Z,99980.84
2022-11-06T11:32:07.114Z,99927.94
2022-11-06T11:34:57.156Z,99968.69
2022-11-06T11:37:46.580Z,99911.81
2022-11-06T11:40:37.294Z,99951.81
2022-11-06T11:43:27.520Z,99938.66
2022-11-06T11:46:20.641Z,99923.84
2022-11-06T11:49:27.298Z,99918.06
2022-11-06T11:52:19.659Z,99910.31
2022-11-06T11:55:15.830Z,99905.81
2022-11-06T11:58:04.499Z,99900.66
2022-11-06T12:00:56.247Z,99905.19
2022-11-06T12:03:47.176Z,99894.72
2022-11-06T12:06:37.105Z,99906.28
2022-11-06T12:09:26.510Z,99901.38
2022-11-06T12:12:21.630Z,99879.41
2022-11-06T12:15:20.143Z,99891.44
2022-11-06T12:18:15.462Z,99877.63
2022-11-06T12:21:06.530Z,99875.91
2022-11-06T12:23:59.126Z,99877.19
2022-11-06T12:26:52.335Z,99848.84
2022-11-06T12:29:43.146Z,99861.09
2022-11-06T12:32:49.878Z,99866.28
2022-11-06T12:35:40.591Z,99859.34
2022-11-06T12:38:33.191Z,99857.66
2022-11-06T12:41:26.271Z,99867.19
2022-11-06T12:44:16.205Z,99869.50
2022-11-06T12:47:09.322Z,99865.63
2022-11-06T12:50:09.700Z,99854.69
2022-11-06T12:53:09.096Z,99862.53
2022-11-06T12:56:02.020Z,99847.25
2022-11-06T12:59:07.033Z,99840.28
2022-11-06T13:02:02.054Z,99836.75
2022-11-06T13:04:55.458Z,99827.94
2022-11-06T13:08:19.401Z,99819.56
2022-11-06T13:11:19.235Z,99826.00
2022-11-06T13:14:16.184Z,99653.66
2022-11-06T13:17:07.303Z,99813.53
2022-11-06T13:20:00.091Z,99811.72
2022-11-06T13:22:52.822Z,99817.63
2022-11-06T13:25:48.877Z,99807.13
2022-11-06T13:28:41.996Z,99813.03
2022-11-06T13:31:37.895Z,99803.44
2022-11-06T13:34:28.006Z,99812.34
2022-11-06T13:37:19.632Z,99809.50
2022-11-06T13:40:18.612Z,99791.00
2022-11-06T13:43:12.146Z,99797.22
2022-11-06T13:46:06.217Z,99791.06
2022-11-06T13:49:05.139Z,99782.84
2022-11-06T13:51:55.553Z,99760.66
2022-11-06T13:54:59.439Z,99776.94
2022-11-06T13:58:18.958Z,99772.44
2022-11-06T14:01:15.937Z,99770.34
2022-11-06T14:04:43.596Z,99756.53
2022-11-06T14:07:32.697Z,99766.84
2022-11-06T14:10:22.573Z,99768.47
2022-11-06T14:13:16.057Z,99733.09
2022-11-06T14:16:25.109Z,99636.53
2022-11-06T14:19:15.250Z,99772.59
2022-11-06T14:22:24.550Z,99613.28
2022-11-06T14:25:48.767Z,99751.16
2022-11-06T14:28:38.695Z,99752.81
2022-11-06T14:31:59.563Z,99749.50
2022-11-06T14:34:48.751Z,99762.31
2022-11-06T14:37:47.833Z,99752.09
2022-11-06T14:40:37.077Z,99756.00
2022-11-06T14:43:28.542Z,99756.69
2022-11-06T14:46:22.358Z,99760.00
2022-11-06T14:49:20.338Z,99753.03
2022-11-06T14:52:11.341Z,99753.28
2022-11-06T14:55:05.533Z,99742.84
2022-11-06T14:57:55.395Z,99730.22
2022-11-06T15:00:51.864Z,99743.69
2022-11-06T15:03:46.160Z,99744.34
2022-11-06T15:06:43.295Z,99751.59
2022-11-06T15:09:47.687Z,99755.31
2022-11-06T15:13:10.179Z,99754.09
2022-11-06T15:16:04.564Z,99760.72
2022-11-06T15:18:36.374Z,99761.38
2022-11-06T15:21:07.035Z,99764.91
2022-11-06T15:23:41.638Z,99764.28
2022-11-06T15:26:17.978Z,99776.91
2022-11-06T15:28:48.605Z,99764.56
2022-11-06T15:31:19.421Z,99762.50
2022-11-06T15:33:55.955Z,99762.13
2022-11-06T15:36:24.942Z,99786.47
2022-11-06T15:39:30.678Z,99770.00
2022-11-06T15:42:20.793Z,99762.81
2022-11-06T15:45:21.202Z,99754.13
2022-11-06T15:48:21.498Z,99745.47
2022-11-06T15:51:21.514Z,99731.50
2022-11-06T15:54:14.572Z,99720.56
2022-11-06T15:57:05.149Z,99729.66
2022-11-06T16:00:09.077Z,99721.44
2022-11-06T16:03:05.129Z,99722.25
2022-11-06T16:05:54.985Z,99716.50
2022-11-06T16:08:43.530Z,99717.72
2022-11-06T16:11:32.397Z,99721.22
2022-11-06T16:14:21.133Z,99724.97
2022-11-06T16:17:10.805Z,99728.84
2022-11-06T16:20:04.110Z,99728.84
2022-11-06T16:22:52.546Z,99731.53
2022-11-06T16:25:43.230Z,99729.91
2022-11-06T16:28:32.169Z,99718.38
2022-11-06T16:31:22.617Z,99721.06
2022-11-06T16:34:22.059Z,99715.91
2022-11-06T16:37:46.239Z,99733.81
2022-11-06T16:40:54.594Z,99735.47
2022-11-06T16:43:43.295Z,99746.59
2022-11-06T16:47:11.716Z,99755.25
2022-11-06T16:50:02.002Z,99757.53
2022-11-06T16:52:54.118Z,99761.84
2022-11-06T16:55:42.616Z,99760.84
2022-11-06T16:58:35.822Z,99768.84
2022-11-06T17:01:24.971Z,99775.03
2022-11-06T17:04:21.633Z,99772.34
2022-11-06T17:07:19.739Z,99772.34
2022-11-06T17:10:42.175Z,99783.69
2022-11-06T17:13:33.155Z,99802.84
2022-11-06T17:16:22.998Z,99795.81
2022-11-06T17:19:11.503Z,99771.91
2022-11-06T17:22:00.058Z,99786.34
2022-11-06T17:24:48.500Z,99807.56
2022-11-06T17:27:36.939Z,99791.91
2022-11-06T17:30:26.797Z,99789.84
2022-11-06T17:33:16.220Z,99792.50
2022-11-06T17:36:05.365Z,99809.59
2022-11-06T17:38:54.749Z,99819.69
2022-11-06T17:41:43.208Z,99814.53
2022-11-06T17:44:31.648Z,99817.22
2022-11-06T17:47:21.462Z,99816.41
2022-11-06T17:50:10.815Z,99818.66
2022-11-06T17:52:59.806Z,99812.47
2022-11-06T17:55:48.253Z,99822.34
2022-11-06T17:58:36.705Z,99818.84
2022-11-06T18:01:25.467Z,99825.44
2022-11-06T18:04:15.391Z,99826.06
2022-11-06T18:07:03.982Z,99821.13
2022-11-06T18:09:52.525Z,99818.66
2022-11-06T18:12:41.126Z,99815.13
2022-11-06T18:15:29.580Z,99811.84
2022-11-06T18:18:18.079Z,99805.03
2022-11-06T18:21:08.053Z,99822.56
2022-11-06T18:23:56.581Z,99822.75
2022-11-06T18:26:45.139Z,99822.97
2022-11-06T18:29:33.629Z,99811.81
2022-11-06T18:32:22.136Z,99801.34
2022-11-06T18:35:10.821Z,99652.59
2022-11-06T18:38:00.638Z,99786.28
2022-11-06T18:40:51.783Z,99835.75
2022-11-06T18:43:40.546Z,99822.75
2022-11-06T18:46:29.651Z,99841.94
2022-11-06T18:49:18.121Z,99845.03
2022-11-06T18:52:06.633Z,99841.31
2022-11-06T18:55:00.853Z,99835.94
2022-11-06T18:57:49.633Z,99860.88
2022-11-06T19:00:38.205Z,99855.34
2022-11-06T19:03:26.687Z,99856.16
2022-11-06T19:06:17.872Z,99850.19
2022-11-06T19:09:07.458Z,99859.06
2022-11-06T19:11:57.339Z,99852.47
2022-11-06T19:14:45.895Z,99836.81
2022-11-06T19:17:34.351Z,99855.16
2022-11-06T19:20:22.831Z,99857.63
2022-11-06T19:23:15.384Z,99855.81
2022-11-06T19:26:29.385Z,99861.78
2022-11-06T19:29:16.168Z,99871.84
2022-11-06T19:32:04.741Z,99871.44
2022-11-06T19:34:53.186Z,99840.31
2022-11-06T19:37:41.658Z,99873.31
2022-11-06T19:40:30.209Z,99879.66
2022-11-06T19:43:18.761Z,99878.44
2022-11-06T19:46:09.227Z,99886.50
2022-11-06T19:48:57.854Z,99868.94
2022-11-06T19:51:46.320Z,99879.28
2022-11-06T19:54:34.942Z,99884.00
2022-11-06T19:57:29.639Z,99875.56
2022-11-06T20:00:18.834Z,99880.50
2022-11-06T20:03:08.951Z,99726.38
2022-11-06T20:05:57.406Z,99868.97
2022-11-06T20:08:48.696Z,99870.63
2022-11-06T20:11:37.195Z,99866.91
2022-11-06T20:14:25.704Z,99864.06
2022-11-06T20:17:14.991Z,99866.91
2022-11-06T20:20:05.283Z,99872.28
2022-11-06T20:22:54.168Z,99848.16
2022-11-06T20:25:42.700Z,99872.31
2022-11-06T20:28:31.241Z,99820.56
2022-11-06T20:31:22.466Z,99853.25
2022-11-06T20:34:10.945Z,99865.66
2022-11-06T20:37:00.707Z,99862.13
2022-11-06T20:39:52.012Z,99799.28
2022-11-06T20:42:40.738Z,99846.47
2022-11-06T20:45:29.259Z,99879.66
2022-11-06T20:48:17.823Z,99874.31
2022-11-06T20:51:07.870Z,99829.41
2022-11-06T20:53:57.666Z,99884.03
2022-11-06T20:56:46.996Z,99871.03
2022-11-06T20:59:38.740Z,99864.47
2022-11-06T21:02:27.325Z,99814.78
2022-11-06T21:05:15.890Z,99862.44
2022-11-06T21:08:04.345Z,99868.81
2022-11-06T21:11:03.281Z,99874.75
2022-11-06T21:13:55.173Z,99892.91
2022-11-06T21:16:43.754Z,99890.03
2022-11-06T21:19:33.079Z,99888.38
2022-11-06T21:22:21.546Z,99909.00
2022-11-06T21:25:11.854Z,99914.56
2022-11-06T21:28:01.713Z,99920.75
2022-11-06T21:30:50.334Z,99933.28
2022-11-06T21:33:40.672Z,99943.22
2022-11-06T21:36:30.548Z,99955.19
2022-11-06T21:39:20.342Z,99951.28
2022-11-06T21:42:08.819Z,99965.91
2022-11-06T21:44:58.610Z,99960.13
2022-11-06T21:47:47.093Z,99967.75
2022-11-06T21:50:35.577Z,99973.72
2022-11-06T21:53:42.034Z,99974.38
2022-11-06T21:56:30.659Z,99983.84
2022-11-06T21:59:20.878Z,99977.06
2022-11-06T22:02:11.452Z,99996.41
2022-11-06T22:05:00.007Z,99996.22
2022-11-06T22:07:48.495Z,99997.25
2022-11-06T22:10:37.089Z,99981.56
2022-11-06T22:13:25.581Z,100006.75
2022-11-06T22:16:15.720Z,100010.47
2022-11-06T22:19:07.191Z,100008.00
2022-11-06T22:21:55.643Z,100005.72
2022-11-06T22:24:44.066Z,100011.28
2022-11-06T22:27:35.607Z,99976.44
2022-11-06T22:30:26.645Z,100008.81
2022-11-06T22:33:15.339Z,100012.94
2022-11-06T22:36:07.139Z,100015.81
2022-11-06T22:38:55.632Z,100017.28
2022-11-06T22:41:44.069Z,100026.13
2022-11-06T22:44:33.650Z,100027.16
2022-11-06T22:47:22.154Z,100026.13
2022-11-06T22:50:10.843Z,100019.94
2022-11-06T22:53:00.623Z,100025.50
2022-11-06T22:55:49.169Z,100020.16
2022-11-06T22:58:37.666Z,100017.88
2022-11-06T23:01:27.858Z,100019.34
2022-11-06T23:04:16.545Z,100020.34
2022-11-06T23:07:04.974Z,100017.84
2022-11-06T23:09:54.783Z,100019.50
2022-11-06T23:12:43.218Z,100021.19
2022-11-06T23:15:32.099Z,100027.13
2022-11-06T23:18:20.504Z,100014.78
2022-11-06T23:21:13.471Z,100019.94
2022-11-06T23:24:01.902Z,100023.03
2022-11-06T23:26:51.765Z,100021.34
2022-11-06T23:29:40.391Z,100023.63
2022-11-06T23:32:29.089Z,100022.38
2022-11-06T23:35:21.178Z,100011.88
2022-11-06T23:38:11.207Z,100010.00
2022-11-06T23:41:20.274Z,100015.16
2022-11-06T23:44:30.598Z,100005.47
2022-11-06T23:47:19.248Z,100023.41
2022-11-06T23:50:08.425Z,100019.88
2022-11-06T23:52:56.859Z,100021.75
2022-11-06T23:55:45.386Z,99998.41
2022-11-06T23:58:33.806Z,100016.81
